createdAt,value
2023-01-10T00:00:47.992Z,14.90
2023-01-10T00:05:52.694Z,14.90
2023-01-10T00:10:56.028Z,14.90
2023-01-10T00:15:59.684Z,14.90
2023-01-10T00:21:04.464Z,14.90
2023-01-10T00:26:07.907Z,14.90
2023-01-10T00:31:12.319Z,14.90
2023-01-10T00:36:17.128Z,14.90
2023-01-10T00:41:37.964Z,14.90
2023-01-10T00:46:41.334Z,14.80
2023-01-10T00:51:46.487Z,14.80
2023-01-10T00:56:49.762Z,14.80
2023-01-10T01:01:53.622Z,14.70
2023-01-10T01:07:00.064Z,14.70
2023-01-10T01:12:03.442Z,14.60
2023-01-10T01:17:07.227Z,14.60
2023-01-10T01:22:12.212Z,14.60
2023-01-10T01:27:15.558Z,14.60
2023-01-10T01:32:19.082Z,14.60
2023-01-10T01:37:24.123Z,14.60
2023-01-10T01:42:29.871Z,14.60
2023-01-10T01:47:33.481Z,14.50
2023-01-10T01:52:39.020Z,14.50
2023-01-10T01:57:42.341Z,14.40
2023-01-10T02:03:01.736Z,14.40
2023-01-10T02:08:07.389Z,14.40
2023-01-10T02:13:15.185Z,14.40
2023-01-10T02:18:19.159Z,14.30
2023-01-10T02:23:58.541Z,14.30
2023-01-10T02:29:30.910Z,14.20
2023-01-10T02:34:42.464Z,14.30
2023-01-10T02:39:53.650Z,14.30
2023-01-10T02:45:05.905Z,14.30
2023-01-10T02:50:31.940Z,14.30
2023-01-10T02:55:45.744Z,14.30
2023-01-10T03:00:57.865Z,14.40
2023-01-10T03:06:15.505Z,14.40
2023-01-10T03:11:40.005Z,14.30
2023-01-10T03:16:49.348Z,14.40
2023-01-10T03:21:57.434Z,14.40
2023-01-10T03:27:07.702Z,14.40
2023-01-10T03:32:14.167Z,14.30
2023-01-10T03:37:23.428Z,14.30
2023-01-10T03:42:56.879Z,14.20
2023-01-10T03:48:04.230Z,14.20
2023-01-10T03:53:09.090Z,14.30
2023-01-10T03:58:12.411Z,14.20
2023-01-10T04:03:16.237Z,14.20
2023-01-10T04:08:20.902Z,14.20
2023-01-10T04:13:24.530Z,14.20
2023-01-10T04:18:27.953Z,14.20
2023-01-10T04:23:32.630Z,14.20
2023-01-10T04:28:35.922Z,14.10
2023-01-10T04:33:40.999Z,14.20
2023-01-10T04:38:45.743Z,14.10
2023-01-10T04:43:49.834Z,14.10
2023-01-10T04:48:53.407Z,14.10
2023-01-10T04:53:58.159Z,14.10
2023-01-10T04:59:01.473Z,14.10
2023-01-10T05:04:05.255Z,14.00
2023-01-10T05:09:10.212Z,14.00
2023-01-10T05:14:13.652Z,14.00
2023-01-10T05:19:17.032Z,14.10
2023-01-10T05:24:22.509Z,14.00
2023-01-10T05:29:25.969Z,14.00
2023-01-10T05:34:29.683Z,14.00
2023-01-10T05:39:34.553Z,13.90
2023-01-10T05:44:37.842Z,13.90
2023-01-10T05:49:41.101Z,13.90
2023-01-10T05:54:46.354Z,13.90
2023-01-10T05:59:49.686Z,13.90
2023-01-10T06:04:55.223Z,13.90
2023-01-10T06:09:59.906Z,13.90
2023-01-10T06:15:03.923Z,13.90
2023-01-10T06:20:08.230Z,13.90
2023-01-10T06:25:13.897Z,13.90
2023-01-10T06:30:17.486Z,14.00
2023-01-10T06:35:20.843Z,14.00
2023-01-10T06:40:25.956Z,14.00
2023-01-10T06:45:29.695Z,14.00
2023-01-10T06:50:33.102Z,14.00
2023-01-10T06:55:37.899Z,14.00
2023-01-10T07:00:41.226Z,14.00
2023-01-10T07:05:44.793Z,14.00
2023-01-10T07:10:49.542Z,14.00
2023-01-10T07:15:52.833Z,14.10
2023-01-10T07:20:56.689Z,14.10
2023-01-10T07:26:05.099Z,14.10
2023-01-10T07:31:08.599Z,14.10
2023-01-10T07:36:12.051Z,14.00
2023-01-10T07:41:16.837Z,14.00
2023-01-10T07:46:20.305Z,14.00
2023-01-10T07:51:24.152Z,14.00
2023-01-10T07:56:30.611Z,14.10
2023-01-10T08:01:34.008Z,14.10
2023-01-10T08:06:37.837Z,14.10
2023-01-10T08:11:43.421Z,14.10
2023-01-10T08:16:46.792Z,14.10
2023-01-10T08:21:50.233Z,14.10
2023-01-10T08:26:54.980Z,14.10
2023-01-10T08:31:58.619Z,14.10
2023-01-10T08:37:01.929Z,14.10
2023-01-10T08:42:07.284Z,14.10
2023-01-10T08:47:10.602Z,14.10
2023-01-10T08:52:13.999Z,14.10
2023-01-10T08:57:19.110Z,14.10
2023-01-10T09:02:22.520Z,14.10
2023-01-10T09:07:25.902Z,14.10
2023-01-10T09:12:48.301Z,14.10
2023-01-10T09:17:54.124Z,14.20
2023-01-10T09:22:58.522Z,14.20
2023-01-10T09:28:05.110Z,14.20
2023-01-10T09:33:08.800Z,14.30
2023-01-10T09:38:16.144Z,14.30
2023-01-10T09:43:29.594Z,14.40
2023-01-10T09:48:41.175Z,14.40
2023-01-10T09:53:46.056Z,14.40
2023-01-10T09:58:50.975Z,14.40
2023-01-10T10:04:01.821Z,14.40
2023-01-10T10:09:05.342Z,14.50
2023-01-10T10:14:22.226Z,14.40
2023-01-10T10:19:34.619Z,14.50
2023-01-10T10:24:51.674Z,14.50
2023-01-10T10:30:16.602Z,14.50
2023-01-10T10:35:28.816Z,14.50
2023-01-10T10:40:38.780Z,14.50
2023-01-10T10:45:48.473Z,14.60
2023-01-10T10:51:05.503Z,14.60
2023-01-10T10:56:14.948Z,14.70
2023-01-10T11:01:21.408Z,14.70
2023-01-10T11:06:26.739Z,14.70
2023-01-10T11:11:34.038Z,14.70
2023-01-10T11:16:40.229Z,14.80
2023-01-10T11:21:48.873Z,14.90
2023-01-10T11:26:53.331Z,14.90
2023-01-10T11:31:58.892Z,15.00
2023-01-10T11:37:04.667Z,15.10
2023-01-10T11:42:30.567Z,15.10
2023-01-10T11:47:41.687Z,15.10
2023-01-10T11:52:50.246Z,15.20
2023-01-10T11:58:00.957Z,15.20
2023-01-10T12:03:21.643Z,15.20
2023-01-10T12:08:28.364Z,15.20
2023-01-10T12:13:43.839Z,15.20
2023-01-10T12:18:49.427Z,15.30
2023-01-10T12:23:54.516Z,15.30
2023-01-10T12:29:02.734Z,15.30
2023-01-10T12:34:15.955Z,15.30
2023-01-10T12:39:24.290Z,15.30
2023-01-10T12:44:33.125Z,15.30
2023-01-10T12:49:44.979Z,15.40
2023-01-10T12:54:49.319Z,15.40
2023-01-10T12:59:55.005Z,15.50
2023-01-10T13:05:04.260Z,15.50
2023-01-10T13:10:09.657Z,15.60
2023-01-10T13:15:21.364Z,15.60
2023-01-10T13:20:37.173Z,15.60
2023-01-10T13:25:40.593Z,15.60
2023-01-10T13:30:44.057Z,15.60
2023-01-10T13:35:52.865Z,15.70
2023-01-10T13:41:02.864Z,15.80
2023-01-10T13:46:39.185Z,15.80
2023-01-10T13:52:37.131Z,15.80
2023-01-10T13:57:55.058Z,15.80
2023-01-10T14:02:58.716Z,15.90
2023-01-10T14:08:03.901Z,15.90
2023-01-10T14:13:15.573Z,15.90
2023-01-10T14:18:22.757Z,15.90
2023-01-10T14:23:32.490Z,15.90
2023-01-10T14:28:36.628Z,15.80
2023-01-10T14:33:44.289Z,15.80
2023-01-10T14:38:51.332Z,15.80
2023-01-10T14:44:00.206Z,15.80
2023-01-10T14:49:03.621Z,15.70
2023-01-10T14:54:15.209Z,15.70
2023-01-10T14:59:19.968Z,15.70
2023-01-10T15:04:25.500Z,15.60
2023-01-10T15:09:32.009Z,15.50
2023-01-10T15:14:37.305Z,15.50
2023-01-10T15:19:41.702Z,15.40
2023-01-10T15:24:59.346Z,15.40
2023-01-10T15:30:03.114Z,15.40
2023-01-10T15:35:09.721Z,15.30
2023-01-10T15:40:24.961Z,15.30
2023-01-10T15:45:31.166Z,15.30
2023-01-10T15:50:38.867Z,15.20
2023-01-10T15:55:48.301Z,15.20
2023-01-10T16:00:54.851Z,15.10
2023-01-10T16:06:01.286Z,15.10
2023-01-10T16:11:08.728Z,15.10
2023-01-10T16:16:19.274Z,15.10
2023-01-10T16:21:22.746Z,15.10
2023-01-10T16:26:27.477Z,15.10
2023-01-10T16:31:30.851Z,15.10
2023-01-10T16:36:34.190Z,15.10
2023-01-10T16:41:56.314Z,15.10
2023-01-10T16:46:59.880Z,15.20
2023-01-10T16:52:03.864Z,15.20
2023-01-10T16:57:12.233Z,15.10
2023-01-10T17:02:19.658Z,15.20
2023-01-10T17:07:23.069Z,15.20
2023-01-10T17:12:32.574Z,15.20
2023-01-10T17:17:37.853Z,15.20
2023-01-10T17:22:44.131Z,15.20
2023-01-10T17:27:48.840Z,15.20
2023-01-10T17:32:52.180Z,15.20
2023-01-10T17:37:56.842Z,15.20
2023-01-10T17:43:01.804Z,15.20
2023-01-10T17:48:07.651Z,15.20
2023-01-10T17:53:11.717Z,15.20
2023-01-10T17:58:17.922Z,15.20
2023-01-10T18:03:21.402Z,15.20
2023-01-10T18:08:25.405Z,15.10
2023-01-10T18:13:32.102Z,15.10
2023-01-10T18:18:35.739Z,15.10
2023-01-10T18:23:39.200Z,15.00
2023-01-10T18:28:45.637Z,15.00
2023-01-10T18:33:49.720Z,14.90
2023-01-10T18:38:54.009Z,14.90
2023-01-10T18:43:59.572Z,14.90
2023-01-10T18:49:03.349Z,14.90
2023-01-10T18:54:07.570Z,14.90
2023-01-10T18:59:12.919Z,14.90
2023-01-10T19:04:17.625Z,14.80
2023-01-10T19:09:21.618Z,14.80
2023-01-10T19:14:29.853Z,14.70
2023-01-10T19:19:34.386Z,14.70
2023-01-10T19:24:40.129Z,14.60
2023-01-10T19:29:48.343Z,14.50
2023-01-10T19:34:53.638Z,14.40
2023-01-10T19:39:57.339Z,14.30
2023-01-10T19:45:06.201Z,14.30
2023-01-10T19:50:11.883Z,14.30
2023-01-10T19:55:15.922Z,14.30
2023-01-10T20:00:22.484Z,14.40
2023-01-10T20:05:26.211Z,14.40
2023-01-10T20:10:30.456Z,14.40
2023-01-10T20:15:36.129Z,14.30
2023-01-10T20:20:41.591Z,14.30
2023-01-10T20:25:45.404Z,14.20
2023-01-10T20:30:50.789Z,14.20
2023-01-10T20:35:59.633Z,14.20
2023-01-10T20:41:06.313Z,14.10
2023-01-10T20:46:13.457Z,14.10
2023-01-10T20:51:19.497Z,14.00
2023-01-10T20:56:25.027Z,14.00
2023-01-10T21:01:35.139Z,14.00
2023-01-10T21:06:39.367Z,14.00
2023-01-10T21:11:57.961Z,14.00
2023-01-10T21:17:07.434Z,14.10
2023-01-10T21:22:11.111Z,14.10
2023-01-10T21:27:14.811Z,14.10
2023-01-10T21:32:19.508Z,14.10
2023-01-10T21:37:22.878Z,14.10
2023-01-10T21:42:35.231Z,14.10
2023-01-10T21:47:41.020Z,14.10
2023-01-10T21:52:44.964Z,14.00
2023-01-10T21:57:48.313Z,13.90
2023-01-10T22:02:53.075Z,13.90
2023-01-10T22:07:57.112Z,13.80
2023-01-10T22:13:00.434Z,13.80
2023-01-10T22:18:05.399Z,13.80
2023-01-10T22:23:08.759Z,13.80
2023-01-10T22:28:12.059Z,13.80
2023-01-10T22:33:16.824Z,13.70
2023-01-10T22:38:20.150Z,13.70
2023-01-10T22:43:23.515Z,13.70
2023-01-10T22:48:28.452Z,13.60
2023-01-10T22:53:31.964Z,13.60
2023-01-10T22:58:35.505Z,13.60
2023-01-10T23:03:40.378Z,13.70
2023-01-10T23:08:45.466Z,13.70
2023-01-10T23:13:49.709Z,13.70
2023-01-10T23:18:54.401Z,13.70
2023-01-10T23:23:57.896Z,13.80
2023-01-10T23:29:01.216Z,13.80
2023-01-10T23:34:05.844Z,13.80
2023-01-10T23:39:09.390Z,13.90
2023-01-10T23:44:12.672Z,13.90
2023-01-10T23:49:17.314Z,14.00
2023-01-10T23:54:20.542Z,14.00
2023-01-10T23:59:24.181Z,14.10
